createdAt,value
2023-01-09T00:01:55.894Z,3.35
2023-01-09T00:21:57.489Z,3.88
2023-01-09T00:41:59.106Z,3.56
2023-01-09T01:02:00.974Z,3.82
2023-01-09T07:55:31.450Z,7.75
2023-01-09T08:15:33.301Z,7.71
2023-01-09T08:35:35.010Z,7.63
2023-01-09T08:55:37.214Z,7.74
2023-01-09T09:15:38.976Z,8.06
2023-01-09T09:35:40.748Z,8.07
2023-01-09T09:55:42.448Z,8.11
2023-01-09T10:36:05.742Z,7.92
2023-01-09T10:56:07.515Z,7.03
2023-01-09T11:16:09.367Z,6.71
2023-01-09T11:36:13.292Z,6.70
2023-01-09T11:56:15.212Z,6.74
2023-01-09T12:16:16.986Z,6.88
2023-01-09T12:36:19.062Z,6.93
2023-01-09T12:56:21.014Z,6.76
2023-01-09T13:16:22.667Z,6.48
2023-01-09T13:36:24.424Z,6.44
2023-01-09T13:56:25.983Z,6.29
2023-01-09T14:16:27.582Z,6.29
2023-01-09T14:36:29.272Z,6.23
2023-01-09T14:56:31.018Z,6.13
2023-01-09T15:16:51.343Z,6.06
2023-01-09T15:37:11.280Z,5.97
2023-01-09T15:57:31.481Z,6.03
2023-01-09T16:17:51.796Z,5.97
2023-01-09T16:38:12.305Z,5.91
2023-01-09T16:58:32.880Z,5.79
2023-01-09T17:18:34.401Z,5.76
2023-01-09T17:38:35.909Z,5.77
2023-01-09T17:58:37.538Z,5.67
2023-01-09T18:18:39.348Z,5.52
2023-01-09T18:39:01.622Z,5.56
2023-01-09T18:59:21.863Z,5.53
2023-01-09T19:19:42.469Z,5.49
2023-01-09T19:40:03.019Z,5.44
2023-01-09T20:00:23.159Z,5.28
2023-01-09T20:20:25.060Z,5.29
2023-01-09T20:40:26.775Z,5.21
2023-01-09T21:00:28.512Z,5.20
2023-01-09T21:20:30.022Z,5.18
2023-01-09T21:40:31.549Z,5.07
2023-01-09T22:00:33.076Z,4.97
2023-01-09T22:20:34.589Z,4.90
2023-01-09T22:40:36.165Z,4.84
2023-01-09T23:00:37.830Z,4.80
2023-01-09T23:20:39.484Z,4.75
2023-01-09T23:40:41.000Z,4.73
